Time;durP1;ratioP1;P1;durP2;ratioP2;P2;SDS_P1;SDS_P2;PMS_P1;PMS_P2;Temp;Humidity;BMP_temperature;BMP_pressure;BME280_temperature;BME280_humidity;BME280_pressure;Samples;Min_cycle;Max_cycle;Signal;HPM_P1;HPM_P2
2023/01/22 00:02:21;;;;;;;32.27;15.57;;;-1.00;99.90;;;;;;5017664;28;20406;-77
2023/01/22 00:04:47;;;;;;;33.33;15.60;;;-1.00;99.90;;;;;;5017321;28;20041;-77
2023/01/22 00:07:14;;;;;;;32.30;15.97;;;-1.00;99.90;;;;;;5017484;28;20523;-77
2023/01/22 00:09:40;;;;;;;35.17;15.40;;;-1.10;99.90;;;;;;5036904;28;20120;-76
2023/01/22 00:12:06;;;;;;;31.00;15.83;;;-1.10;99.90;;;;;;5038344;28;20380;-80
2023/01/22 00:14:32;;;;;;;31.27;16.07;;;-1.10;99.90;;;;;;5053036;28;20795;-79
2023/01/22 00:16:57;;;;;;;33.30;16.23;;;-1.10;99.90;;;;;;5037124;28;20025;-78
2023/01/22 00:19:23;;;;;;;32.93;16.23;;;-1.20;99.90;;;;;;5053887;28;20033;-78
2023/01/22 00:21:48;;;;;;;33.73;16.93;;;-1.20;99.90;;;;;;5037242;28;20489;-78
2023/01/22 00:24:14;;;;;;;32.17;17.47;;;-1.20;99.90;;;;;;5036711;28;20176;-78
2023/01/22 00:26:40;;;;;;;35.10;16.93;;;-1.20;99.90;;;;;;5036460;28;20445;-78
2023/01/22 00:29:06;;;;;;;33.60;18.60;;;-1.20;99.90;;;;;;5036814;28;20024;-78
2023/01/22 00:31:32;;;;;;;40.47;18.60;;;-1.20;99.90;;;;;;5053313;28;20074;-78
2023/01/22 00:33:58;;;;;;;36.07;18.27;;;-1.20;99.90;;;;;;5053521;28;20315;-79
2023/01/22 00:36:23;;;;;;;36.33;18.57;;;-1.20;99.90;;;;;;5026681;28;20477;-79
2023/01/22 00:38:50;;;;;;;37.03;17.47;;;-1.20;99.90;;;;;;5033649;28;20100;-78
2023/01/22 00:41:17;;;;;;;37.50;18.17;;;-1.30;99.90;;;;;;5032946;28;20084;-79
2023/01/22 00:43:43;;;;;;;28.60;15.23;;;-1.20;99.90;;;;;;5016507;28;20729;-79
2023/01/22 00:46:11;;;;;;;35.50;18.20;;;-1.20;99.90;;;;;;5017111;28;20387;-80
2023/01/22 00:48:37;;;;;;;30.77;15.43;;;-1.20;99.90;;;;;;5016765;28;20413;-79
2023/01/22 00:51:07;;;;;;;34.77;17.40;;;-1.20;99.90;;;;;;5025564;28;20276;-78
2023/01/22 00:53:33;;;;;;;35.40;17.60;;;-1.20;99.90;;;;;;5052941;28;20342;-78
2023/01/22 00:56:00;;;;;;;37.10;18.10;;;-1.30;99.90;;;;;;5052881;28;20286;-78
2023/01/22 00:58:27;;;;;;;35.20;18.60;;;-1.20;99.90;;;;;;5053901;28;20287;-78
2023/01/22 01:00:53;;;;;;;36.50;17.80;;;-1.30;99.90;;;;;;5052748;28;20299;-78
2023/01/22 01:03:25;;;;;;;34.20;17.40;;;-1.20;99.90;;;;;;5053014;28;20303;-79
2023/01/22 01:06:18;;;;;;;33.80;15.83;;;-1.20;99.90;;;;;;5035059;28;20332;-80
2023/01/22 01:08:44;;;;;;;31.87;15.00;;;-1.20;99.90;;;;;;5037719;28;20302;-79
2023/01/22 01:11:17;;;;;;;30.43;15.83;;;-1.20;99.90;;;;;;5041068;28;20288;-80
2023/01/22 01:13:43;;;;;;;33.63;16.37;;;-1.20;99.90;;;;;;5032717;28;20025;-80
2023/01/22 01:16:29;;;;;;;29.77;15.67;;;-1.20;99.90;;;;;;5032962;28;20303;-80
2023/01/22 01:19:13;;;;;;;31.43;16.13;;;-1.10;99.90;;;;;;5032479;28;20284;-78
2023/01/22 01:21:38;;;;;;;30.17;15.30;;;-1.20;99.90;;;;;;5045427;28;20335;-79
2023/01/22 01:24:04;;;;;;;31.80;15.33;;;-1.20;99.90;;;;;;5052444;28;20068;-79
2023/01/22 01:26:32;;;;;;;28.33;14.73;;;-1.20;99.90;;;;;;5052463;28;20040;-79
2023/01/22 01:28:57;;;;;;;26.63;13.70;;;-1.20;99.90;;;;;;5052500;28;20031;-79
2023/01/22 01:31:24;;;;;;;30.90;15.00;;;-1.20;99.90;;;;;;5035709;28;20643;-79
2023/01/22 01:33:50;;;;;;;27.90;14.10;;;-1.20;99.90;;;;;;5052188;28;20032;-79
2023/01/22 01:36:19;;;;;;;30.93;15.70;;;-1.20;99.90;;;;;;5023105;28;20288;-79
2023/01/22 01:38:46;;;;;;;29.67;14.80;;;-1.20;99.90;;;;;;5050138;28;20028;-79
2023/01/22 01:41:15;;;;;;;30.63;15.30;;;-1.20;99.90;;;;;;5053547;28;20380;-80
2023/01/22 01:43:41;;;;;;;28.67;14.60;;;-1.20;99.90;;;;;;5051943;28;20394;-79
2023/01/22 01:46:21;;;;;;;29.33;14.80;;;-1.20;99.90;;;;;;5035421;28;20796;-79
2023/01/22 01:48:51;;;;;;;28.27;14.07;;;-1.30;99.90;;;;;;5053394;28;20271;-79
2023/01/22 01:51:30;;;;;;;30.80;15.27;;;-1.30;99.90;;;;;;5051959;28;20328;-77
2023/01/22 01:53:58;;;;;;;26.87;13.87;;;-1.30;99.90;;;;;;5051966;28;20282;-77
2023/01/22 01:56:39;;;;;;;24.63;13.20;;;-1.30;99.90;;;;;;5051731;28;20332;-78
2023/01/22 01:59:10;;;;;;;25.87;13.60;;;-1.30;99.90;;;;;;5052153;28;20311;-78
2023/01/22 02:01:35;;;;;;;29.00;13.60;;;-1.30;99.90;;;;;;5051863;28;20310;-77
2023/01/22 02:04:01;;;;;;;32.13;15.63;;;-1.30;99.90;;;;;;5035330;28;20279;-78
2023/01/22 02:06:27;;;;;;;25.90;14.43;;;-1.40;99.90;;;;;;5052670;28;20037;-77
2023/01/22 02:08:54;;;;;;;25.57;13.83;;;-1.40;99.90;;;;;;5051866;28;20017;-78
2023/01/22 02:11:21;;;;;;;26.50;13.63;;;-1.40;99.90;;;;;;5051623;28;20025;-77
2023/01/22 02:14:03;;;;;;;27.13;13.63;;;-1.40;99.90;;;;;;5052168;28;20283;-77
2023/01/22 02:16:29;;;;;;;29.00;14.00;;;-1.40;99.90;;;;;;5051849;28;20272;-77
2023/01/22 02:18:55;;;;;;;25.87;12.73;;;-1.30;99.90;;;;;;5051545;28;20631;-77
2023/01/22 02:21:34;;;;;;;25.30;12.73;;;-1.40;99.90;;;;;;5048935;28;20307;-78
2023/01/22 02:24:00;;;;;;;26.70;13.10;;;-1.40;99.90;;;;;;5032582;28;20029;-77
2023/01/22 02:26:26;;;;;;;22.70;12.27;;;-1.40;99.90;;;;;;5015329;28;20283;-78
2023/01/22 02:28:52;;;;;;;26.80;13.33;;;-1.40;99.90;;;;;;5031538;28;20276;-78
2023/01/22 02:31:18;;;;;;;26.23;12.20;;;-1.40;99.90;;;;;;5032941;28;20026;-78
2023/01/22 02:33:44;;;;;;;25.53;13.90;;;-1.50;99.90;;;;;;5031584;28;20026;-78
2023/01/22 02:36:09;;;;;;;26.43;12.10;;;-1.40;99.90;;;;;;5045727;28;20037;-77
2023/01/22 02:38:35;;;;;;;25.53;13.23;;;-1.40;99.90;;;;;;5039141;28;20434;-78
2023/01/22 02:41:01;;;;;;;27.00;13.03;;;-1.40;99.90;;;;;;5055664;28;20047;-78
2023/01/22 02:43:26;;;;;;;26.40;13.57;;;-1.40;99.90;;;;;;5052919;28;20160;-78
2023/01/22 02:45:52;;;;;;;25.83;13.90;;;-1.40;99.90;;;;;;5035393;28;20469;-78
2023/01/22 02:48:18;;;;;;;25.37;13.47;;;-1.40;99.90;;;;;;5037057;28;20079;-77
2023/01/22 02:50:44;;;;;;;27.07;12.67;;;-1.40;99.90;;;;;;5035552;28;20372;-78
2023/01/22 02:53:10;;;;;;;23.00;11.47;;;-1.40;99.90;;;;;;5020024;28;20038;-78
2023/01/22 02:55:37;;;;;;;30.03;14.23;;;-1.30;99.90;;;;;;5025829;28;20348;-78
2023/01/22 02:58:03;;;;;;;24.90;12.97;;;-1.40;99.90;;;;;;5036450;28;20053;-78
2023/01/22 03:00:29;;;;;;;29.43;12.80;;;-1.40;99.90;;;;;;5036637;28;20764;-78
2023/01/22 03:02:55;;;;;;;24.60;12.00;;;-1.40;99.90;;;;;;5035514;28;20275;-78
2023/01/22 03:05:20;;;;;;;26.17;13.23;;;-1.40;99.90;;;;;;5034794;28;20026;-78
2023/01/22 03:07:46;;;;;;;23.70;11.87;;;-1.40;99.90;;;;;;5035098;28;20033;-77
2023/01/22 03:10:15;;;;;;;22.53;12.33;;;-1.30;99.90;;;;;;5018483;28;20053;-77
2023/01/22 03:23:40;;;;;;;24.33;12.77;;;-1.10;99.90;;;;;;5055742;28;20801;-78
2023/01/22 03:26:06;;;;;;;25.73;13.07;;;-1.00;99.90;;;;;;5037880;28;20029;-78
2023/01/22 03:28:32;;;;;;;25.00;12.83;;;-0.80;99.90;;;;;;5038245;28;20283;-77
2023/01/22 03:30:58;;;;;;;25.23;12.73;;;-0.80;99.90;;;;;;5037840;28;20029;-78
2023/01/22 03:33:24;;;;;;;25.83;13.77;;;-0.70;99.90;;;;;;5054333;28;20564;-78
2023/01/22 03:35:50;;;;;;;28.67;14.00;;;-0.60;99.90;;;;;;5053488;28;20503;-78
2023/01/22 03:38:15;;;;;;;23.93;13.37;;;-0.60;99.90;;;;;;5036932;28;20052;-78
2023/01/22 03:40:41;;;;;;;25.77;12.90;;;-0.50;99.90;;;;;;5053823;28;20416;-78
2023/01/22 03:43:07;;;;;;;27.43;13.63;;;-0.40;99.90;;;;;;5031722;28;20017;-78
2023/01/22 03:45:33;;;;;;;25.17;13.63;;;-0.30;99.90;;;;;;5018079;28;20057;-78
2023/01/22 03:48:01;;;;;;;27.97;14.17;;;-0.30;99.90;;;;;;5034200;28;20021;-79
2023/01/22 03:50:27;;;;;;;27.77;14.30;;;-0.30;99.90;;;;;;5034422;28;20069;-78
2023/01/22 03:52:52;;;;;;;25.67;13.23;;;-0.20;99.90;;;;;;5017519;28;20025;-79
2023/01/22 03:55:18;;;;;;;27.17;15.13;;;-0.10;99.90;;;;;;5034197;28;20438;-80
2023/01/22 03:57:43;;;;;;;28.17;15.17;;;-0.10;99.90;;;;;;5018535;28;20477;-79
2023/01/22 04:00:11;;;;;;;28.73;14.53;;;0.00;99.90;;;;;;5017945;28;20029;-79
2023/01/22 04:02:37;;;;;;;28.53;15.17;;;0.10;99.90;;;;;;5022571;28;20047;-78
2023/01/22 04:05:03;;;;;;;27.40;14.13;;;0.10;99.90;;;;;;5045871;28;20112;-79
2023/01/22 04:07:28;;;;;;;25.20;13.63;;;0.10;99.90;;;;;;5017516;28;20033;-78
2023/01/22 04:09:54;;;;;;;25.60;13.83;;;0.20;99.90;;;;;;5033622;28;20033;-79
2023/01/22 04:12:20;;;;;;;26.27;13.23;;;0.20;99.90;;;;;;5035189;28;20393;-79
2023/01/22 04:14:45;;;;;;;26.10;12.53;;;0.30;99.90;;;;;;5033909;28;20105;-79
2023/01/22 04:17:11;;;;;;;24.00;12.53;;;0.20;99.90;;;;;;5018465;28;20079;-78
2023/01/22 04:19:36;;;;;;;22.97;12.10;;;0.30;99.90;;;;;;5033540;28;20029;-78
2023/01/22 04:22:02;;;;;;;25.50;13.27;;;0.30;99.90;;;;;;5034941;28;20041;-80
2023/01/22 04:24:28;;;;;;;26.90;14.63;;;0.40;99.90;;;;;;5021960;28;20090;-79
2023/01/22 04:26:53;;;;;;;27.27;12.77;;;0.40;99.90;;;;;;5024281;28;20029;-79
2023/01/22 04:29:19;;;;;;;23.90;12.70;;;0.40;99.90;;;;;;5017135;28;20406;-79
2023/01/22 04:31:45;;;;;;;26.30;13.90;;;0.40;99.90;;;;;;5033166;28;20392;-80
2023/01/22 04:34:10;;;;;;;23.93;13.23;;;0.50;99.90;;;;;;5017103;28;20029;-79
2023/01/22 04:36:36;;;;;;;25.10;14.13;;;0.50;99.90;;;;;;5016742;28;20071;-79
2023/01/22 04:39:02;;;;;;;28.00;14.57;;;0.50;99.90;;;;;;5034334;28;20440;-79
2023/01/22 04:41:27;;;;;;;25.83;14.37;;;0.50;99.90;;;;;;5034824;28;20120;-80
2023/01/22 04:43:53;;;;;;;27.07;14.13;;;0.50;99.90;;;;;;5033203;28;20126;-79
2023/01/22 04:46:19;;;;;;;30.43;15.17;;;0.50;99.90;;;;;;5033174;28;20041;-79
2023/01/22 04:48:47;;;;;;;29.27;14.93;;;0.50;99.90;;;;;;5033171;28;20044;-79
2023/01/22 04:51:12;;;;;;;26.37;14.73;;;0.50;99.90;;;;;;5034631;28;20033;-79
2023/01/22 04:53:38;;;;;;;26.67;14.50;;;0.40;99.90;;;;;;5028462;28;20041;-79
2023/01/22 04:56:04;;;;;;;27.57;14.30;;;0.50;99.90;;;;;;5049796;28;20078;-80
2023/01/22 04:58:29;;;;;;;26.30;14.87;;;0.50;99.90;;;;;;5032946;28;20084;-81
2023/01/22 05:00:56;;;;;;;26.40;15.03;;;0.50;99.90;;;;;;4999672;28;20132;-80
2023/01/22 05:03:21;;;;;;;28.47;15.43;;;0.60;99.90;;;;;;5016777;28;20426;-80
2023/01/22 05:05:47;;;;;;;27.67;15.20;;;0.60;99.90;;;;;;5035970;28;20064;-79
2023/01/22 05:08:13;;;;;;;25.43;14.13;;;0.60;99.90;;;;;;5016339;28;20021;-79
2023/01/22 05:10:39;;;;;;;27.97;14.83;;;0.60;99.90;;;;;;5016466;28;20386;-79
2023/01/22 05:13:05;;;;;;;32.73;15.13;;;0.60;99.90;;;;;;5032913;28;20025;-78
2023/01/22 05:15:31;;;;;;;29.63;16.23;;;0.60;99.90;;;;;;5032883;28;20026;-79
2023/01/22 05:17:57;;;;;;;30.73;14.70;;;0.50;99.90;;;;;;5027640;28;20035;-80
2023/01/22 05:20:24;;;;;;;28.43;14.27;;;0.60;99.90;;;;;;5052058;28;20033;-80
2023/01/22 05:22:50;;;;;;;26.97;15.47;;;0.60;99.90;;;;;;5053623;28;20017;-79
2023/01/22 05:25:16;;;;;;;30.57;15.40;;;0.60;99.90;;;;;;5041629;28;20028;-79
2023/01/22 05:27:42;;;;;;;25.93;14.40;;;0.60;99.90;;;;;;5058286;28;20104;-80
2023/01/22 05:30:08;;;;;;;28.97;14.87;;;0.60;99.90;;;;;;5054799;28;20033;-80
2023/01/22 05:32:34;;;;;;;27.30;16.20;;;0.70;99.90;;;;;;5056043;28;20405;-77
2023/01/22 05:35:00;;;;;;;27.73;15.70;;;0.70;99.90;;;;;;5051087;28;20469;-79
2023/01/22 05:37:25;;;;;;;23.27;13.33;;;0.70;99.90;;;;;;5033822;28;20053;-79
2023/01/22 05:39:51;;;;;;;29.63;15.50;;;0.70;99.90;;;;;;5035778;28;20029;-78
2023/01/22 05:42:17;;;;;;;26.67;15.40;;;0.80;99.90;;;;;;5035581;28;20445;-78
2023/01/22 05:44:42;;;;;;;27.87;15.23;;;0.70;99.90;;;;;;5051622;28;20061;-79
2023/01/22 05:47:08;;;;;;;27.70;15.37;;;0.70;99.90;;;;;;5052238;28;20108;-78
2023/01/22 05:49:34;;;;;;;29.83;13.83;;;0.70;99.90;;;;;;5053301;28;20091;-79
2023/01/22 05:52:00;;;;;;;25.23;14.90;;;0.70;99.90;;;;;;5035550;28;20473;-78
2023/01/22 05:54:25;;;;;;;26.03;14.63;;;0.80;99.90;;;;;;5052133;28;20446;-77
2023/01/22 05:56:51;;;;;;;27.37;15.17;;;0.80;99.90;;;;;;5035173;28;20140;-78
2023/01/22 05:59:17;;;;;;;25.90;15.37;;;0.80;99.90;;;;;;5051773;28;20181;-78
2023/01/22 06:01:42;;;;;;;25.73;14.00;;;0.80;99.90;;;;;;5051736;28;20076;-78
2023/01/22 06:04:08;;;;;;;25.03;14.97;;;0.80;99.90;;;;;;5051830;28;20029;-79
2023/01/22 06:06:34;;;;;;;27.57;15.00;;;0.80;99.90;;;;;;5051163;28;20040;-77
2023/01/22 06:08:59;;;;;;;22.60;14.30;;;0.80;99.90;;;;;;5033903;28;20037;-78
2023/01/22 06:11:26;;;;;;;28.37;14.87;;;0.80;99.90;;;;;;5031234;28;20029;-78
2023/01/22 06:13:51;;;;;;;26.23;14.53;;;0.80;99.90;;;;;;5033694;28;20029;-78
2023/01/22 06:16:17;;;;;;;29.50;15.07;;;0.80;99.90;;;;;;5015822;28;20358;-77
2023/01/22 06:18:43;;;;;;;27.70;14.07;;;0.80;99.90;;;;;;5031604;28;20026;-78
2023/01/22 06:21:08;;;;;;;25.70;14.50;;;0.80;99.90;;;;;;5015087;28;20493;-77
2023/01/22 06:23:34;;;;;;;25.00;14.60;;;0.80;99.90;;;;;;5031574;28;20470;-77
2023/01/22 06:26:01;;;;;;;22.63;13.53;;;0.80;99.90;;;;;;5015359;28;20060;-77
2023/01/22 06:28:27;;;;;;;26.00;14.10;;;0.80;99.90;;;;;;5032331;28;20025;-78
2023/01/22 06:31:09;;;;;;;25.70;14.10;;;0.80;99.90;;;;;;5032342;28;20033;-77
2023/01/22 06:33:35;;;;;;;24.47;13.33;;;0.80;99.90;;;;;;5032636;28;20029;-77
2023/01/22 06:36:02;;;;;;;25.40;14.20;;;0.80;99.90;;;;;;5018892;28;20029;-77
2023/01/22 06:38:28;;;;;;;21.03;12.50;;;0.80;99.90;;;;;;5044876;28;20033;-78
2023/01/22 06:40:56;;;;;;;22.80;12.73;;;0.80;99.90;;;;;;5015160;28;20087;-77
2023/01/22 06:43:23;;;;;;;22.33;12.00;;;0.80;99.90;;;;;;5031341;28;20025;-77
2023/01/22 06:45:49;;;;;;;26.73;13.20;;;0.80;99.90;;;;;;5031720;28;20026;-77
2023/01/22 06:48:15;;;;;;;22.77;13.57;;;0.80;99.90;;;;;;5032337;28;20021;-77
2023/01/22 06:50:41;;;;;;;20.47;12.23;;;0.80;99.90;;;;;;5031392;28;20040;-77
2023/01/22 06:53:07;;;;;;;25.23;12.40;;;0.80;99.90;;;;;;5015144;28;20069;-78
2023/01/22 06:55:33;;;;;;;23.90;12.63;;;0.80;99.90;;;;;;5016922;28;20073;-79
2023/01/22 06:57:58;;;;;;;25.17;11.27;;;0.80;99.90;;;;;;5034845;28;20033;-77
2023/01/22 07:00:24;;;;;;;19.40;11.07;;;0.80;99.90;;;;;;5050770;28;20025;-79
2023/01/22 07:02:50;;;;;;;19.40;10.83;;;0.80;99.90;;;;;;5050855;28;20030;-80
2023/01/22 07:05:18;;;;;;;20.27;9.90;;;0.80;99.90;;;;;;5050608;28;20033;-79
2023/01/22 07:07:45;;;;;;;20.03;10.67;;;0.90;99.90;;;;;;5051341;28;20029;-80
2023/01/22 07:10:11;;;;;;;19.40;10.40;;;0.80;99.90;;;;;;5052733;28;20053;-80
2023/01/22 07:12:37;;;;;;;17.07;9.70;;;0.80;99.90;;;;;;5051216;28;20468;-80
2023/01/22 07:15:05;;;;;;;18.93;10.53;;;0.80;99.90;;;;;;5034317;28;20500;-78
2023/01/22 07:17:31;;;;;;;21.07;10.07;;;0.80;99.90;;;;;;5031412;28;20100;-78
2023/01/22 07:19:57;;;;;;;16.90;9.67;;;1.00;99.90;;;;;;5031091;28;20120;-78
2023/01/22 07:22:22;;;;;;;19.60;9.83;;;0.70;99.90;;;;;;5048044;28;20067;-78
2023/01/22 07:24:48;;;;;;;21.87;10.63;;;0.80;99.90;;;;;;5034709;28;20053;-77
2023/01/22 07:27:14;;;;;;;19.10;9.80;;;0.90;99.90;;;;;;5034800;28;20057;-78
2023/01/22 07:29:39;;;;;;;19.70;10.07;;;0.80;99.90;;;;;;5035959;28;20065;-78
2023/01/22 07:32:05;;;;;;;16.53;9.43;;;0.90;99.90;;;;;;5003762;28;20533;-77
2023/01/22 07:34:30;;;;;;;16.70;9.63;;;0.80;99.90;;;;;;5034481;28;20037;-78
2023/01/22 07:36:56;;;;;;;15.53;8.87;;;0.80;99.90;;;;;;5007439;28;20390;-80
2023/01/22 07:39:22;;;;;;;18.60;9.53;;;0.80;99.90;;;;;;5033713;28;20040;-78
2023/01/22 07:41:48;;;;;;;17.00;9.30;;;0.80;99.90;;;;;;5040925;28;20072;-79
2023/01/22 07:44:15;;;;;;;17.47;9.43;;;0.70;99.90;;;;;;5047388;28;20459;-78
2023/01/22 07:46:40;;;;;;;16.13;8.63;;;0.70;99.90;;;;;;5029487;28;20428;-79
2023/01/22 07:49:06;;;;;;;18.83;8.83;;;0.70;99.90;;;;;;5049172;28;20024;-78
2023/01/22 07:51:32;;;;;;;16.93;10.10;;;0.70;99.90;;;;;;5059947;28;20029;-78
2023/01/22 07:53:58;;;;;;;17.50;9.77;;;0.70;99.90;;;;;;5020063;28;20025;-79
2023/01/22 07:56:24;;;;;;;17.93;9.07;;;0.60;99.90;;;;;;5047342;28;20025;-81
2023/01/22 07:58:49;;;;;;;13.83;8.43;;;0.60;99.90;;;;;;5025753;28;20076;-77
2023/01/22 08:01:16;;;;;;;17.03;9.23;;;0.60;99.90;;;;;;5023407;28;20029;-78
2023/01/22 08:03:41;;;;;;;15.67;8.57;;;0.60;99.90;;;;;;5034346;28;20026;-78
2023/01/22 08:06:08;;;;;;;18.30;9.93;;;0.60;99.90;;;;;;5033667;28;20021;-78
2023/01/22 08:08:34;;;;;;;18.33;9.57;;;0.60;99.90;;;;;;5035317;28;20029;-78
2023/01/22 08:10:59;;;;;;;17.80;10.03;;;0.60;99.90;;;;;;5029574;28;20091;-78
2023/01/22 08:13:25;;;;;;;18.10;8.90;;;0.70;99.90;;;;;;5053135;28;20117;-78
2023/01/22 08:15:51;;;;;;;18.10;10.13;;;0.70;99.90;;;;;;5024361;28;20040;-78
2023/01/22 08:18:17;;;;;;;17.60;9.30;;;0.70;99.90;;;;;;5024947;28;20035;-79
2023/01/22 08:20:42;;;;;;;18.30;11.00;;;0.80;99.90;;;;;;5045306;28;20481;-77
2023/01/22 08:23:08;;;;;;;18.07;10.27;;;0.80;99.90;;;;;;5036753;28;20025;-78
2023/01/22 08:25:33;;;;;;;17.10;9.63;;;0.90;99.90;;;;;;5052209;28;20029;-77
2023/01/22 08:28:04;;;;;;;17.73;10.57;;;0.90;99.90;;;;;;5036953;28;20029;-78
2023/01/22 08:30:31;;;;;;;18.43;10.00;;;0.90;99.90;;;;;;5053531;28;20466;-78
2023/01/22 08:32:57;;;;;;;16.53;10.10;;;1.00;99.90;;;;;;5036802;28;20464;-77
2023/01/22 08:35:22;;;;;;;16.50;10.30;;;1.00;99.90;;;;;;5044841;28;20093;-77
2023/01/22 08:37:48;;;;;;;15.70;9.60;;;1.00;99.90;;;;;;5025929;28;20049;-78
2023/01/22 08:40:14;;;;;;;15.93;8.80;;;1.10;99.90;;;;;;5039525;28;20029;-78
2023/01/22 08:42:40;;;;;;;16.10;9.73;;;1.10;99.90;;;;;;5035804;28;20041;-78
2023/01/22 08:45:07;;;;;;;15.07;8.83;;;1.10;99.90;;;;;;5052950;28;20053;-79
2023/01/22 08:47:33;;;;;;;15.97;8.20;;;1.20;99.90;;;;;;5035851;28;20068;-79
2023/01/22 08:50:01;;;;;;;16.90;9.33;;;1.20;99.90;;;;;;5036576;28;20063;-78
2023/01/22 08:52:27;;;;;;;14.57;8.67;;;1.20;99.90;;;;;;5054545;28;20036;-78
2023/01/22 08:54:52;;;;;;;17.27;8.73;;;1.20;99.90;;;;;;5052267;28;20448;-78
2023/01/22 08:57:18;;;;;;;15.20;8.60;;;1.30;99.90;;;;;;5052975;28;20082;-79
2023/01/22 08:59:44;;;;;;;14.37;8.03;;;1.30;99.90;;;;;;5053159;28;20025;-78
2023/01/22 09:02:13;;;;;;;13.43;8.07;;;1.40;99.90;;;;;;5033170;28;20125;-78
2023/01/22 09:04:40;;;;;;;12.80;8.57;;;1.40;99.90;;;;;;5042257;28;20025;-81
2023/01/22 09:07:06;;;;;;;12.67;7.60;;;1.40;99.90;;;;;;5042325;28;20105;-82
2023/01/22 09:09:32;;;;;;;12.93;7.70;;;1.50;99.90;;;;;;5043222;28;20532;-82
2023/01/22 09:11:58;;;;;;;13.47;8.50;;;1.50;99.90;;;;;;5026514;28;20108;-82
2023/01/22 09:14:23;;;;;;;13.50;7.83;;;1.50;99.90;;;;;;5033553;28;20117;-83
2023/01/22 09:16:49;;;;;;;16.93;8.13;;;1.50;99.90;;;;;;5027205;28;20370;-82
2023/01/22 09:19:15;;;;;;;12.27;7.33;;;1.60;99.90;;;;;;5045690;28;20029;-81
2023/01/22 09:21:40;;;;;;;13.23;7.93;;;1.60;99.90;;;;;;5043391;28;20029;-82
2023/01/22 09:24:06;;;;;;;14.90;8.67;;;1.60;99.90;;;;;;5029507;28;20020;-84
2023/01/22 09:26:32;;;;;;;15.43;8.47;;;1.70;99.90;;;;;;5028089;28;20033;-82
2023/01/22 09:29:04;;;;;;;13.83;8.40;;;1.80;99.90;;;;;;5050415;28;20112;-83
2023/01/22 09:31:31;;;;;;;13.93;8.57;;;1.70;99.90;;;;;;5034255;28;20022;-82
2023/01/22 09:33:57;;;;;;;13.67;7.90;;;1.80;99.90;;;;;;5033364;28;20029;-78
2023/01/22 09:36:23;;;;;;;15.80;8.47;;;1.80;99.90;;;;;;5015638;28;20034;-78
2023/01/22 09:38:48;;;;;;;13.87;8.07;;;1.80;99.90;;;;;;5034956;28;20162;-78
2023/01/22 09:41:33;;;;;;;12.97;7.87;;;1.80;99.90;;;;;;5018365;28;20046;-79
2023/01/22 09:44:04;;;;;;;;;;;1.80;99.90;;;;;;5043047;28;20501;-78
2023/01/22 09:46:46;;;;;;;13.50;7.80;;;1.80;99.90;;;;;;5031910;28;19909;-79
2023/01/22 09:49:28;;;;;;;12.40;7.87;;;1.80;99.90;;;;;;5037936;28;20028;-79
2023/01/22 09:51:57;;;;;;;19.47;7.73;;;1.80;99.90;;;;;;5048685;28;20020;-80
2023/01/22 09:54:23;;;;;;;14.87;8.10;;;1.80;99.90;;;;;;5037681;28;20029;-79
2023/01/22 09:56:54;;;;;;;15.37;8.50;;;1.80;99.90;;;;;;5031111;28;20028;-79
2023/01/22 09:59:23;;;;;;;12.50;7.70;;;1.80;99.90;;;;;;5031682;28;20025;-79
2023/01/22 10:01:56;;;;;;;15.83;9.10;;;1.90;99.90;;;;;;5031297;28;20041;-78
2023/01/22 10:04:40;;;;;;;13.50;8.27;;;1.90;99.90;;;;;;5031625;28;20017;-79
2023/01/22 10:07:13;;;;;;;11.57;5.82;;;1.90;99.90;;;;;;5033117;28;20053;-78
2023/01/22 10:09:40;;;;;;;10.23;6.05;;;2.00;99.90;;;;;;5033680;28;20229;-78
2023/01/22 10:12:12;;;;;;;14.50;8.10;;;2.00;99.90;;;;;;5051370;28;20044;-78
2023/01/22 10:14:40;;;;;;;16.87;8.23;;;2.00;99.90;;;;;;5051650;28;20029;-79
2023/01/22 10:17:20;;;;;;;17.97;10.00;;;2.00;99.90;;;;;;5035454;28;20025;-80
2023/01/22 10:19:52;;;;;;;27.27;11.17;;;2.00;99.90;;;;;;5051791;28;20025;-79
2023/01/22 10:22:21;;;;;;;22.10;9.83;;;2.00;99.90;;;;;;5051245;28;20033;-78
2023/01/22 10:24:47;;;;;;;18.07;8.63;;;2.00;99.90;;;;;;5048466;28;20600;-78
2023/01/22 10:27:20;;;;;;;20.73;10.20;;;2.00;99.90;;;;;;5031803;28;20037;-78
2023/01/22 10:30:01;;;;;;;17.07;10.53;;;2.00;99.90;;;;;;5035746;28;20013;-78
2023/01/22 10:32:28;;;;;;;14.47;8.33;;;2.10;99.90;;;;;;5051489;28;20060;-78
2023/01/22 10:35:19;;;;;;;13.97;8.47;;;2.10;99.90;;;;;;5050829;28;20111;-79
2023/01/22 10:37:47;;;;;;;13.33;7.73;;;2.10;99.90;;;;;;5046369;28;20037;-78
2023/01/22 10:40:33;;;;;;;14.40;8.80;;;2.10;99.90;;;;;;5049863;28;20025;-78
2023/01/22 10:43:03;;;;;;;14.30;8.17;;;2.20;99.90;;;;;;5051435;28;20163;-78
2023/01/22 10:45:29;;;;;;;13.00;7.63;;;2.20;99.90;;;;;;5050786;28;20045;-78
2023/01/22 10:48:12;;;;;;;15.63;8.70;;;2.30;99.90;;;;;;5034810;28;20032;-78
2023/01/22 10:50:37;;;;;;;14.67;7.80;;;2.30;99.90;;;;;;5049467;28;20029;-77
2023/01/22 10:53:06;;;;;;;15.13;8.40;;;2.30;99.90;;;;;;5035771;28;20147;-77
2023/01/22 10:55:39;;;;;;;13.40;7.70;;;2.30;99.90;;;;;;5031896;28;20068;-77
2023/01/22 10:58:13;;;;;;;14.73;8.68;;;2.30;99.90;;;;;;5032896;28;20509;-78
2023/01/22 11:00:39;;;;;;;12.65;7.30;;;2.30;99.90;;;;;;5036629;28;20068;-77
2023/01/22 11:03:31;;;;;;;14.20;8.10;;;2.40;99.90;;;;;;5035044;28;20028;-77
2023/01/22 11:06:15;;;;;;;15.77;9.03;;;2.40;99.90;;;;;;5033575;28;20550;-78
2023/01/22 11:08:58;;;;;;;13.68;7.72;;;2.40;99.90;;;;;;5035364;28;20021;-78
2023/01/22 11:11:41;;;;;;;14.30;7.93;;;2.40;99.90;;;;;;5054728;28;20025;-78
2023/01/22 11:14:31;;;;;;;15.47;8.67;;;2.50;99.90;;;;;;5054944;28;20025;-78
2023/01/22 11:17:03;;;;;;;13.80;7.90;;;2.50;99.90;;;;;;5054630;28;20025;-77
2023/01/22 11:19:43;;;;;;;15.63;8.03;;;2.50;99.90;;;;;;5054727;28;20350;-77
2023/01/22 11:22:21;;;;;;;15.33;7.50;;;2.40;99.90;;;;;;5052816;28;20120;-77
2023/01/22 11:24:47;;;;;;;13.50;7.93;;;2.50;99.90;;;;;;5054605;28;20090;-78
2023/01/22 11:27:13;;;;;;;13.63;7.60;;;2.50;99.90;;;;;;5037807;28;20033;-78
2023/01/22 11:29:47;;;;;;;12.63;7.63;;;2.40;99.90;;;;;;5046283;28;20037;-77
2023/01/22 11:32:13;;;;;;;;;;;2.50;99.90;;;;;;5035459;28;20033;-78
2023/01/22 11:35:23;;;;;;;13.60;8.47;;;2.50;99.90;;;;;;5034469;28;20345;-77
2023/01/22 11:38:25;;;;;;;13.10;7.63;;;2.50;99.90;;;;;;5034307;28;20029;-77
2023/01/22 11:41:11;;;;;;;15.47;8.97;;;2.50;99.90;;;;;;5035444;28;20024;-77
2023/01/22 11:43:55;;;;;;;13.33;8.00;;;2.50;99.90;;;;;;5035228;28;20029;-77
2023/01/22 11:46:23;;;;;;;14.23;8.57;;;2.60;99.90;;;;;;5034541;28;20429;-77
2023/01/22 11:49:15;;;;;;;15.27;8.27;;;2.60;99.90;;;;;;5034166;28;20071;-78
2023/01/22 11:52:09;;;;;;;19.50;9.63;;;2.60;99.90;;;;;;5034406;28;20025;-78
2023/01/22 11:55:00;;;;;;;16.97;8.93;;;2.50;99.90;;;;;;5026021;28;20030;-78
2023/01/22 11:57:44;;;;;;;14.67;8.30;;;2.50;99.90;;;;;;5045250;28;20056;-78
2023/01/22 12:00:32;;;;;;;15.13;9.20;;;2.50;99.90;;;;;;5054136;28;20040;-78
2023/01/22 12:03:16;;;;;;;18.63;9.57;;;2.50;99.90;;;;;;5054099;28;20135;-79
2023/01/22 12:05:50;;;;;;;11.77;6.65;;;2.50;99.90;;;;;;5054010;28;20056;-77
2023/01/22 12:08:16;;;;;;;15.67;9.13;;;2.50;99.90;;;;;;5053745;28;20067;-78
2023/01/22 12:10:45;;;;;;;15.93;9.63;;;2.50;99.90;;;;;;5053965;28;20032;-78
2023/01/22 12:13:25;;;;;;;17.17;10.23;;;2.60;99.90;;;;;;5053005;28;20029;-77
2023/01/22 12:16:09;;;;;;;17.40;9.10;;;2.60;99.90;;;;;;5054073;28;20401;-78
2023/01/22 12:19:16;;;;;;;11.80;6.72;;;2.60;99.90;;;;;;5053705;28;20128;-77
2023/01/22 12:21:47;;;;;;;15.33;9.27;;;2.70;99.90;;;;;;5045247;28;20167;-79
2023/01/22 12:24:35;;;;;;;16.93;9.47;;;2.70;99.90;;;;;;5041474;28;20029;-77
2023/01/22 12:27:13;;;;;;;21.13;10.17;;;2.80;99.90;;;;;;5033490;28;20029;-77
2023/01/22 12:30:13;;;;;;;21.37;10.87;;;2.90;99.90;;;;;;5033521;28;20481;-77
2023/01/22 12:32:42;;;;;;;18.67;10.37;;;2.90;99.90;;;;;;5035167;28;20025;-77
2023/01/22 12:35:18;;;;;;;21.57;11.63;;;3.10;99.90;;;;;;5034535;28;20033;-77
2023/01/22 12:37:53;;;;;;;15.87;9.70;;;3.00;99.90;;;;;;5035846;28;20030;-77
2023/01/22 12:41:10;;;;;;;15.23;9.40;;;3.10;99.90;;;;;;5041448;28;20033;-77
2023/01/22 12:43:53;;;;;;;16.10;9.23;;;3.20;99.90;;;;;;5026394;28;20489;-77
2023/01/22 12:46:42;;;;;;;13.53;8.80;;;3.20;99.90;;;;;;5033081;28;20076;-78
2023/01/22 12:49:10;;;;;;;15.30;8.50;;;3.30;99.90;;;;;;5033492;28;20028;-77
2023/01/22 12:51:39;;;;;;;15.27;9.03;;;3.30;99.90;;;;;;5033404;28;20052;-77
2023/01/22 12:54:35;;;;;;;14.53;9.23;;;3.30;99.70;;;;;;5035258;28;20096;-77
2023/01/22 12:57:16;;;;;;;18.83;9.97;;;3.30;99.60;;;;;;5032853;28;20398;-76
2023/01/22 12:59:50;;;;;;;19.93;9.20;;;3.30;99.30;;;;;;5033170;28;20056;-77
2023/01/22 13:02:29;;;;;;;16.47;9.07;;;3.30;99.30;;;;;;5017417;28;20083;-78